createdAt,value
2023-02-02T00:02:02.352Z,7.60
2023-02-02T00:04:32.394Z,7.60
2023-02-02T00:06:59.919Z,7.70
2023-02-02T00:09:29.311Z,7.70
2023-02-02T00:11:57.033Z,7.60
2023-02-02T00:14:24.869Z,7.60
2023-02-02T00:16:53.484Z,7.60
2023-02-02T00:19:26.374Z,7.60
2023-02-02T00:21:54.542Z,7.70
2023-02-02T00:24:21.768Z,7.60
2023-02-02T00:26:52.084Z,7.60
2023-02-02T00:29:28.584Z,7.50
2023-02-02T00:31:55.695Z,7.60
2023-02-02T00:34:22.995Z,7.40
2023-02-02T00:36:50.322Z,7.50
2023-02-02T00:39:27.481Z,7.60
2023-02-02T00:41:55.705Z,7.50
2023-02-02T00:44:41.372Z,7.50
2023-02-02T00:47:08.046Z,7.50
2023-02-02T00:49:34.710Z,7.40
2023-02-02T00:52:01.388Z,7.50
2023-02-02T00:54:28.550Z,7.40
2023-02-02T00:56:55.254Z,7.40
2023-02-02T00:59:21.920Z,7.40
2023-02-02T01:01:48.653Z,7.40
2023-02-02T01:04:15.348Z,7.40
2023-02-02T01:06:42.164Z,7.40
2023-02-02T01:09:08.941Z,7.50
2023-02-02T01:11:36.667Z,7.50
2023-02-02T01:14:03.641Z,7.40
2023-02-02T01:16:30.471Z,7.40
2023-02-02T01:18:57.272Z,7.40
2023-02-02T01:21:24.220Z,7.40
2023-02-02T01:23:50.944Z,7.40
2023-02-02T01:26:18.305Z,7.30
2023-02-02T01:28:45.513Z,7.20
2023-02-02T01:31:14.927Z,7.30
2023-02-02T01:33:43.565Z,7.40
2023-02-02T01:36:16.522Z,7.40
2023-02-02T01:38:43.719Z,7.30
2023-02-02T01:41:20.715Z,7.20
2023-02-02T01:43:47.378Z,7.10
2023-02-02T01:46:15.353Z,7.20
2023-02-02T01:48:46.462Z,7.30
2023-02-02T01:51:17.762Z,7.20
2023-02-02T01:53:46.049Z,7.20
2023-02-02T01:56:17.500Z,7.20
2023-02-02T01:58:45.057Z,7.20
2023-02-02T02:01:12.479Z,7.30
2023-02-02T02:03:39.428Z,7.30
2023-02-02T02:06:13.832Z,7.20
2023-02-02T02:08:43.911Z,7.20
2023-02-02T02:11:10.860Z,7.20
2023-02-02T02:13:57.429Z,7.20
2023-02-02T02:16:49.317Z,7.20
2023-02-02T02:20:18.025Z,7.30
2023-02-02T02:23:22.771Z,7.20
2023-02-02T02:26:20.179Z,7.20
2023-02-02T02:29:09.532Z,7.10
2023-02-02T02:32:01.079Z,7.10
2023-02-02T02:34:50.224Z,7.20
2023-02-02T02:37:40.924Z,7.20
2023-02-02T02:40:35.422Z,7.20
2023-02-02T02:43:15.454Z,7.20
2023-02-02T02:45:44.556Z,7.10
2023-02-02T02:48:12.405Z,7.10
2023-02-02T02:50:39.189Z,7.10
2023-02-02T02:53:11.694Z,7.10
2023-02-02T02:55:54.967Z,7.00
2023-02-02T02:58:41.999Z,7.00
2023-02-02T03:01:27.852Z,7.00
2023-02-02T03:04:00.321Z,7.00
2023-02-02T03:06:44.799Z,7.00
2023-02-02T03:09:17.015Z,7.00
2023-02-02T03:11:44.058Z,7.00
2023-02-02T03:14:10.814Z,7.00
2023-02-02T03:16:37.714Z,7.00
2023-02-02T03:19:06.146Z,7.00
2023-02-02T03:21:33.700Z,7.00
2023-02-02T03:24:01.028Z,7.00
2023-02-02T03:26:28.505Z,7.00
2023-02-02T03:28:57.325Z,7.00
2023-02-02T03:31:26.967Z,7.00
2023-02-02T03:33:54.107Z,7.00
2023-02-02T03:36:21.628Z,7.00
2023-02-02T03:38:48.456Z,7.00
2023-02-02T03:41:15.249Z,7.00
2023-02-02T03:43:41.919Z,7.00
2023-02-02T03:46:08.644Z,7.00
2023-02-02T03:48:37.279Z,7.00
2023-02-02T03:51:12.001Z,7.10
2023-02-02T03:53:40.191Z,7.00
2023-02-02T03:56:07.233Z,7.00
2023-02-02T03:58:33.940Z,7.00
2023-02-02T04:01:05.757Z,6.90
2023-02-02T04:03:32.964Z,7.00
2023-02-02T04:06:00.207Z,7.00
2023-02-02T04:08:26.926Z,6.90
2023-02-02T04:10:53.947Z,6.90
2023-02-02T04:13:20.587Z,6.90
2023-02-02T04:15:47.294Z,6.90
2023-02-02T04:18:13.968Z,7.00
2023-02-02T04:20:40.641Z,6.90
2023-02-02T04:23:07.322Z,6.90
2023-02-02T04:25:33.987Z,7.00
2023-02-02T04:28:00.629Z,6.90
2023-02-02T04:30:27.285Z,6.90
2023-02-02T04:32:55.040Z,6.90
2023-02-02T04:35:21.951Z,6.90
2023-02-02T04:37:48.760Z,7.00
2023-02-02T04:40:15.515Z,6.90
2023-02-02T04:42:42.154Z,6.80
2023-02-02T04:45:09.228Z,6.90
2023-02-02T04:47:35.945Z,7.00
2023-02-02T04:50:02.631Z,7.00
2023-02-02T04:52:29.549Z,6.90
2023-02-02T04:54:56.199Z,6.90
2023-02-02T04:57:22.930Z,6.90
2023-02-02T04:59:49.693Z,6.90
2023-02-02T05:02:16.406Z,6.90
2023-02-02T05:04:43.077Z,6.80
2023-02-02T05:07:09.776Z,6.90
2023-02-02T05:09:36.423Z,6.80
2023-02-02T05:12:03.385Z,6.80
2023-02-02T05:14:30.081Z,6.80
2023-02-02T05:16:56.795Z,6.90
2023-02-02T05:19:23.472Z,6.80
2023-02-02T05:21:51.325Z,6.80
2023-02-02T05:24:18.183Z,6.90
2023-02-02T05:26:44.987Z,6.90
2023-02-02T05:29:11.750Z,6.90
2023-02-02T05:31:38.483Z,6.90
2023-02-02T05:34:06.811Z,6.90
2023-02-02T05:36:33.713Z,6.90
2023-02-02T05:39:00.463Z,6.90
2023-02-02T05:41:27.125Z,6.90
2023-02-02T05:43:53.855Z,6.90
2023-02-02T05:46:20.600Z,6.80
2023-02-02T05:48:47.590Z,6.90
2023-02-02T05:51:33.376Z,7.00
2023-02-02T05:54:01.033Z,7.00
2023-02-02T05:56:27.860Z,7.10
2023-02-02T05:58:54.545Z,7.00
2023-02-02T06:01:21.967Z,7.10
2023-02-02T06:03:48.757Z,7.00
2023-02-02T06:06:15.471Z,7.00
2023-02-02T06:08:42.116Z,7.00
2023-02-02T06:11:13.298Z,7.00
2023-02-02T06:13:40.019Z,7.00
2023-02-02T06:16:07.370Z,7.00
2023-02-02T06:18:35.353Z,7.00
2023-02-02T06:21:05.619Z,7.00
2023-02-02T06:23:33.478Z,7.00
2023-02-02T06:26:00.659Z,7.00
2023-02-02T06:28:27.311Z,7.00
2023-02-02T06:30:54.015Z,7.10
2023-02-02T06:33:20.695Z,7.00
2023-02-02T06:35:47.408Z,7.10
2023-02-02T06:38:14.100Z,7.00
2023-02-02T06:40:40.772Z,6.90
2023-02-02T06:43:08.947Z,6.90
2023-02-02T06:45:39.991Z,6.90
2023-02-02T06:48:10.764Z,7.00
2023-02-02T06:50:40.645Z,7.00
2023-02-02T06:53:07.354Z,7.00
2023-02-02T06:55:33.986Z,6.90
2023-02-02T06:58:01.518Z,7.00
2023-02-02T07:00:29.976Z,7.00
2023-02-02T07:02:56.800Z,6.90
2023-02-02T07:05:24.279Z,7.00
2023-02-02T07:07:51.436Z,6.90
2023-02-02T07:11:13.315Z,7.00
2023-02-02T07:13:06.897Z,7.00
2023-02-02T07:15:34.375Z,7.00
2023-02-02T07:18:01.763Z,6.90
2023-02-02T07:20:28.422Z,7.00
2023-02-02T07:22:55.160Z,7.00
2023-02-02T07:25:22.565Z,7.00
2023-02-02T07:27:53.594Z,7.10
2023-02-02T07:30:20.759Z,7.00
2023-02-02T07:32:49.410Z,7.00
2023-02-02T07:35:17.296Z,7.00
2023-02-02T07:37:43.954Z,7.00
2023-02-02T07:40:11.337Z,7.00
2023-02-02T07:42:38.011Z,6.90
2023-02-02T07:45:24.318Z,7.10
2023-02-02T07:47:57.206Z,7.10
2023-02-02T07:50:25.220Z,7.00
2023-02-02T07:52:52.538Z,7.00
2023-02-02T07:55:19.889Z,6.90
2023-02-02T07:57:46.663Z,7.00
2023-02-02T08:00:13.904Z,6.90
2023-02-02T08:02:40.621Z,6.90
2023-02-02T08:05:07.533Z,7.00
2023-02-02T08:07:34.960Z,7.10
2023-02-02T08:10:01.761Z,7.00
2023-02-02T08:12:28.452Z,6.90
2023-02-02T08:14:55.197Z,6.80
2023-02-02T08:17:23.215Z,6.90
2023-02-02T08:19:49.926Z,7.00
2023-02-02T08:22:17.894Z,6.90
2023-02-02T08:24:45.527Z,6.90
2023-02-02T08:27:12.187Z,6.80
2023-02-02T08:29:39.415Z,6.90
2023-02-02T08:32:06.190Z,6.90
2023-02-02T08:34:36.733Z,6.90
2023-02-02T08:37:03.973Z,6.90
2023-02-02T08:39:30.649Z,6.90
2023-02-02T08:41:57.563Z,6.90
2023-02-02T08:44:25.150Z,6.90
2023-02-02T08:46:54.475Z,6.90
2023-02-02T08:49:21.318Z,6.90
2023-02-02T08:51:47.964Z,6.80
2023-02-02T08:54:14.624Z,6.90
2023-02-02T08:56:41.278Z,6.90
2023-02-02T08:59:08.087Z,6.90
2023-02-02T09:01:35.561Z,6.90
2023-02-02T09:04:05.503Z,7.00
2023-02-02T09:06:34.635Z,6.90
2023-02-02T09:09:01.733Z,7.00
2023-02-02T09:11:28.958Z,7.00
2023-02-02T09:13:58.380Z,7.00
2023-02-02T09:16:26.467Z,7.10
2023-02-02T09:18:53.831Z,7.00
2023-02-02T09:21:20.944Z,7.00
2023-02-02T09:23:50.089Z,6.90
2023-02-02T09:26:28.543Z,6.90
2023-02-02T09:29:04.101Z,6.90
2023-02-02T09:31:34.383Z,6.80
2023-02-02T09:34:03.775Z,7.00
2023-02-02T09:36:30.776Z,7.00
2023-02-02T09:38:57.657Z,7.00
2023-02-02T09:41:39.337Z,7.00
2023-02-02T09:44:13.425Z,7.00
2023-02-02T09:46:40.079Z,7.00
2023-02-02T09:49:15.032Z,6.90
2023-02-02T09:51:46.257Z,7.00
2023-02-02T09:54:20.471Z,6.90
2023-02-02T09:56:51.523Z,7.00
2023-02-02T09:59:27.672Z,7.00
2023-02-02T10:01:58.404Z,7.10
2023-02-02T10:04:36.058Z,7.10
2023-02-02T10:07:34.395Z,7.10
2023-02-02T10:10:18.960Z,7.10
2023-02-02T10:12:51.920Z,7.10
2023-02-02T10:15:18.645Z,7.10
2023-02-02T10:17:56.527Z,7.10
2023-02-02T10:20:48.686Z,7.10
2023-02-02T10:23:23.234Z,7.10
2023-02-02T10:26:20.263Z,7.00
2023-02-02T10:29:15.321Z,7.00
2023-02-02T10:32:22.459Z,7.10
2023-02-02T10:35:37.001Z,7.00
2023-02-02T10:38:33.210Z,7.00
2023-02-02T10:41:14.394Z,7.10
2023-02-02T10:44:10.306Z,7.30
2023-02-02T10:46:42.893Z,7.20
2023-02-02T10:49:19.756Z,7.30
2023-02-02T10:52:02.478Z,7.30
2023-02-02T10:54:59.217Z,7.20
2023-02-02T10:58:01.985Z,7.20
2023-02-02T11:00:35.548Z,7.20
2023-02-02T11:03:04.620Z,7.20
2023-02-02T11:05:50.801Z,7.20
2023-02-02T11:08:20.925Z,7.20
2023-02-02T11:10:52.252Z,7.20
2023-02-02T11:13:27.433Z,7.30
2023-02-02T11:16:19.881Z,7.40
2023-02-02T11:18:47.045Z,7.30
2023-02-02T11:21:23.306Z,7.30
2023-02-02T11:24:22.014Z,7.40
2023-02-02T11:26:50.463Z,7.40
2023-02-02T11:29:27.414Z,7.40
2023-02-02T11:31:54.728Z,7.50
2023-02-02T11:34:28.309Z,7.50
2023-02-02T11:37:02.452Z,7.40
2023-02-02T11:39:29.196Z,7.40
2023-02-02T11:42:20.126Z,7.40
2023-02-02T11:44:53.531Z,7.40
2023-02-02T11:47:32.597Z,7.40
2023-02-02T11:50:02.269Z,7.40
2023-02-02T11:52:33.038Z,7.40
2023-02-02T11:55:02.528Z,7.60
2023-02-02T11:57:30.488Z,7.60
2023-02-02T12:00:26.952Z,7.50
2023-02-02T12:02:54.166Z,7.50
2023-02-02T12:05:21.192Z,7.50
2023-02-02T12:07:48.930Z,7.60
2023-02-02T12:10:34.020Z,7.60
2023-02-02T12:13:10.524Z,7.50
2023-02-02T12:16:08.385Z,7.60
2023-02-02T12:18:40.776Z,7.60
2023-02-02T12:21:07.436Z,7.60
2023-02-02T12:23:55.489Z,7.60
2023-02-02T12:26:34.311Z,7.60
2023-02-02T12:29:19.060Z,7.70
2023-02-02T12:32:15.090Z,7.70
2023-02-02T12:34:54.776Z,7.70
2023-02-02T12:37:49.244Z,7.80
2023-02-02T12:40:49.780Z,7.80
2023-02-02T12:43:35.099Z,7.70
2023-02-02T12:46:20.369Z,7.70
2023-02-02T12:49:07.622Z,7.70
2023-02-02T12:51:54.060Z,7.70
2023-02-02T12:54:52.733Z,7.90
2023-02-02T12:57:37.238Z,7.90
2023-02-02T13:00:07.165Z,7.90
2023-02-02T13:03:18.223Z,7.80
2023-02-02T13:06:10.433Z,7.80
2023-02-02T13:08:51.811Z,7.90
2023-02-02T13:11:32.850Z,7.90
2023-02-02T13:14:24.249Z,8.00
2023-02-02T13:16:55.918Z,7.80
2023-02-02T13:19:40.316Z,7.90
2023-02-02T13:22:29.150Z,7.90
2023-02-02T13:25:00.885Z,7.90
2023-02-02T13:27:30.588Z,7.90
2023-02-02T13:30:30.401Z,7.90
2023-02-02T13:33:04.770Z,8.00
2023-02-02T13:35:39.274Z,8.00
2023-02-02T13:38:25.638Z,8.00
2023-02-02T13:40:55.864Z,8.20
2023-02-02T13:43:32.194Z,8.50
2023-02-02T13:46:23.184Z,8.30
2023-02-02T13:49:07.266Z,8.20
2023-02-02T13:52:15.020Z,8.20
2023-02-02T13:55:04.791Z,8.10
2023-02-02T13:58:17.587Z,8.10
2023-02-02T14:00:53.845Z,8.00
2023-02-02T14:03:33.672Z,8.80
2023-02-02T14:06:19.079Z,8.40
2023-02-02T14:08:56.297Z,8.30
2023-02-02T14:11:37.721Z,8.10
2023-02-02T14:14:33.377Z,8.10
2023-02-02T14:17:17.177Z,8.00
2023-02-02T14:19:43.782Z,8.00
2023-02-02T14:22:11.723Z,7.90
2023-02-02T14:24:40.478Z,8.00
2023-02-02T14:27:07.153Z,7.90
2023-02-02T14:29:36.618Z,7.90
2023-02-02T14:32:29.369Z,7.90
2023-02-02T14:35:08.371Z,7.90
2023-02-02T14:37:53.766Z,7.90
2023-02-02T14:40:33.628Z,7.90
2023-02-02T14:43:49.491Z,7.90
2023-02-02T14:46:24.379Z,8.00
2023-02-02T14:48:53.806Z,7.80
2023-02-02T14:51:21.383Z,7.90
2023-02-02T14:54:09.943Z,8.00
2023-02-02T14:56:49.801Z,7.90
2023-02-02T14:59:27.663Z,7.90
2023-02-02T15:02:20.469Z,8.00
2023-02-02T15:04:48.144Z,7.90
2023-02-02T15:07:23.733Z,8.00
2023-02-02T15:09:58.090Z,8.00
2023-02-02T15:12:35.526Z,8.10
2023-02-02T15:15:20.495Z,8.10
2023-02-02T15:18:07.592Z,8.10
2023-02-02T15:20:40.553Z,8.10
2023-02-02T15:23:18.980Z,8.10
2023-02-02T15:25:51.589Z,8.10
2023-02-02T15:29:02.331Z,8.10
2023-02-02T15:31:46.461Z,8.20
2023-02-02T15:34:17.653Z,8.20
2023-02-02T15:36:46.957Z,8.10
2023-02-02T15:39:41.646Z,8.10
2023-02-02T15:42:51.266Z,8.20
2023-02-02T15:45:54.727Z,8.10
2023-02-02T15:48:30.639Z,8.10
2023-02-02T15:51:15.364Z,8.20
2023-02-02T15:53:41.975Z,8.20
2023-02-02T15:56:31.874Z,8.20
2023-02-02T15:58:59.845Z,8.20
2023-02-02T16:01:32.981Z,8.20
2023-02-02T16:03:59.659Z,8.20
2023-02-02T16:06:26.476Z,8.20
2023-02-02T16:08:53.182Z,8.20
2023-02-02T16:11:25.421Z,8.10
2023-02-02T16:14:04.817Z,8.20
2023-02-02T16:16:37.756Z,8.20
2023-02-02T16:19:23.937Z,8.10
2023-02-02T16:22:04.346Z,8.20
2023-02-02T16:24:36.008Z,8.30
2023-02-02T16:27:07.150Z,8.30
2023-02-02T16:29:35.171Z,8.20
2023-02-02T16:32:02.205Z,8.10
2023-02-02T16:34:41.117Z,8.20
2023-02-02T16:37:22.132Z,8.20
2023-02-02T16:39:49.517Z,8.20
2023-02-02T16:42:29.015Z,8.20
2023-02-02T16:44:57.111Z,8.10
2023-02-02T16:47:26.780Z,8.10
2023-02-02T16:50:08.763Z,8.10
2023-02-02T16:52:53.364Z,8.00
2023-02-02T16:55:21.236Z,8.00
2023-02-02T16:57:49.785Z,7.90
2023-02-02T17:00:31.436Z,7.90
2023-02-02T17:03:05.735Z,8.00
2023-02-02T17:05:35.676Z,8.10
2023-02-02T17:08:05.557Z,8.00
2023-02-02T17:10:38.026Z,8.10
2023-02-02T17:13:30.295Z,8.00
2023-02-02T17:15:58.496Z,8.10
2023-02-02T17:18:25.763Z,8.00
2023-02-02T17:21:03.495Z,7.90
2023-02-02T17:23:32.028Z,7.90
2023-02-02T17:25:59.129Z,7.90
2023-02-02T17:28:26.674Z,7.90
2023-02-02T17:31:06.612Z,7.80
2023-02-02T17:33:35.119Z,7.80
2023-02-02T17:36:03.291Z,7.90
2023-02-02T17:38:30.325Z,8.00
2023-02-02T17:41:01.611Z,8.00
2023-02-02T17:43:29.756Z,8.00
2023-02-02T17:45:56.527Z,8.00
2023-02-02T17:48:23.241Z,8.10
2023-02-02T17:50:50.339Z,8.00
2023-02-02T17:53:19.633Z,7.90
2023-02-02T17:55:49.552Z,7.90
2023-02-02T17:58:19.753Z,7.90
2023-02-02T18:00:56.159Z,8.00
2023-02-02T18:03:27.171Z,8.00
2023-02-02T18:05:54.387Z,8.00
2023-02-02T18:08:21.177Z,8.00
2023-02-02T18:10:48.157Z,7.90
2023-02-02T18:13:18.996Z,7.80
2023-02-02T18:15:46.465Z,7.80
2023-02-02T18:18:13.221Z,7.90
2023-02-02T18:20:48.417Z,7.80
2023-02-02T18:23:16.506Z,7.80
2023-02-02T18:25:43.263Z,7.90
2023-02-02T18:28:11.202Z,7.90
2023-02-02T18:30:39.781Z,7.90
2023-02-02T18:33:09.153Z,7.90
2023-02-02T18:35:40.391Z,7.80
2023-02-02T18:38:07.128Z,7.90
2023-02-02T18:40:33.902Z,7.80
2023-02-02T18:43:00.715Z,7.80
2023-02-02T18:45:28.026Z,7.80
2023-02-02T18:47:54.873Z,7.90
2023-02-02T18:50:21.958Z,7.90
2023-02-02T18:52:48.645Z,7.80
2023-02-02T18:55:15.407Z,7.80
2023-02-02T18:57:42.061Z,7.90
2023-02-02T19:00:09.549Z,7.90
2023-02-02T19:02:36.210Z,7.90
2023-02-02T19:05:41.509Z,7.90
2023-02-02T19:08:08.148Z,7.90
2023-02-02T19:10:35.249Z,7.80
2023-02-02T19:13:14.567Z,7.80
2023-02-02T19:15:42.251Z,7.90
2023-02-02T19:18:19.089Z,7.80
2023-02-02T19:20:46.605Z,7.90
2023-02-02T19:23:15.950Z,7.90
2023-02-02T19:25:46.543Z,8.00
2023-02-02T19:28:25.530Z,8.00
2023-02-02T19:30:54.119Z,8.00
2023-02-02T19:33:21.162Z,8.00
2023-02-02T19:35:52.257Z,8.00
2023-02-02T19:38:20.483Z,8.00
2023-02-02T19:40:48.214Z,7.90
2023-02-02T19:43:23.334Z,8.00
2023-02-02T19:45:50.290Z,7.90
2023-02-02T19:48:24.742Z,7.90
2023-02-02T19:50:51.778Z,8.00
2023-02-02T19:53:37.942Z,8.00
2023-02-02T19:56:24.627Z,8.00
2023-02-02T19:58:51.305Z,8.10
2023-02-02T20:01:21.265Z,8.10
2023-02-02T20:03:47.997Z,8.10
2023-02-02T20:06:24.718Z,8.10
2023-02-02T20:08:52.289Z,8.10
2023-02-02T20:11:36.960Z,8.20
2023-02-02T20:14:32.697Z,8.10
2023-02-02T20:17:07.394Z,8.10
2023-02-02T20:19:40.309Z,8.10
2023-02-02T20:22:28.471Z,8.10
2023-02-02T20:24:57.199Z,8.10
2023-02-02T20:27:26.549Z,8.10
2023-02-02T20:29:57.482Z,8.10
2023-02-02T20:32:36.890Z,8.10
2023-02-02T20:35:34.476Z,8.10
2023-02-02T20:38:01.408Z,8.20
2023-02-02T20:40:29.781Z,8.30
2023-02-02T20:42:58.156Z,8.30
2023-02-02T20:45:25.765Z,8.30
2023-02-02T20:47:52.829Z,8.30
2023-02-02T20:50:21.370Z,8.30
2023-02-02T20:52:48.629Z,8.30
2023-02-02T20:55:15.663Z,8.30
2023-02-02T20:57:42.374Z,8.30
2023-02-02T21:00:12.537Z,8.30
2023-02-02T21:02:39.467Z,8.30
2023-02-02T21:05:07.224Z,8.30
2023-02-02T21:07:33.860Z,8.30
2023-02-02T21:10:00.707Z,8.20
2023-02-02T21:12:27.436Z,8.30
2023-02-02T21:14:54.464Z,8.20
2023-02-02T21:17:21.420Z,8.20
2023-02-02T21:19:48.183Z,8.30
2023-02-02T21:22:15.039Z,8.30
2023-02-02T21:24:42.408Z,8.30
2023-02-02T21:27:09.307Z,8.30
2023-02-02T21:29:36.107Z,8.30
2023-02-02T21:32:04.295Z,8.40
2023-02-02T21:34:32.330Z,8.40
2023-02-02T21:36:59.626Z,8.40
2023-02-02T21:39:31.990Z,8.30
2023-02-02T21:42:07.932Z,8.30
2023-02-02T21:44:44.584Z,8.30
2023-02-02T21:47:23.931Z,8.30
2023-02-02T21:49:51.064Z,8.40
2023-02-02T21:52:19.328Z,8.40
2023-02-02T21:54:47.349Z,8.50
2023-02-02T21:57:36.901Z,8.40
2023-02-02T22:00:36.256Z,8.50
2023-02-02T22:03:03.099Z,8.40
2023-02-02T22:05:35.157Z,8.40
2023-02-02T22:08:07.887Z,8.50
2023-02-02T22:10:39.209Z,8.40
2023-02-02T22:13:16.774Z,8.40
2023-02-02T22:15:48.113Z,8.40
2023-02-02T22:18:18.401Z,8.30
2023-02-02T22:20:47.343Z,8.30
2023-02-02T22:23:16.526Z,8.30
2023-02-02T22:25:44.921Z,8.40
2023-02-02T22:28:25.960Z,8.30
2023-02-02T22:30:54.830Z,8.40
2023-02-02T22:33:23.510Z,8.30
2023-02-02T22:35:50.562Z,8.40
2023-02-02T22:38:22.984Z,8.40
2023-02-02T22:40:51.232Z,8.40
2023-02-02T22:43:19.885Z,8.40
2023-02-02T22:45:47.299Z,8.40
2023-02-02T22:48:15.651Z,8.50
2023-02-02T22:50:42.830Z,8.40
2023-02-02T22:53:10.102Z,8.40
2023-02-02T22:55:36.855Z,8.40
2023-02-02T22:58:03.589Z,8.40
2023-02-02T23:00:33.440Z,8.50
2023-02-02T23:03:00.252Z,8.40
2023-02-02T23:05:28.040Z,8.50
2023-02-02T23:07:55.380Z,8.50
2023-02-02T23:10:25.781Z,8.50
2023-02-02T23:12:54.855Z,8.50
2023-02-02T23:15:21.782Z,8.50
2023-02-02T23:17:48.916Z,8.50
2023-02-02T23:20:16.053Z,8.50
2023-02-02T23:22:42.890Z,8.50
2023-02-02T23:25:10.653Z,8.50
2023-02-02T23:27:37.699Z,8.50
2023-02-02T23:30:05.391Z,8.40
2023-02-02T23:32:32.035Z,8.40
2023-02-02T23:34:59.340Z,8.40
2023-02-02T23:37:26.313Z,8.40
2023-02-02T23:39:53.040Z,8.40
2023-02-02T23:42:19.749Z,8.40
2023-02-02T23:44:46.404Z,8.50
2023-02-02T23:47:13.120Z,8.40
2023-02-02T23:49:40.214Z,8.50
2023-02-02T23:52:07.146Z,8.50
2023-02-02T23:54:34.443Z,8.50
2023-02-02T23:57:01.791Z,8.50
2023-02-02T23:59:29.010Z,8.60
